createdAt,value
2019-01-15T00:01:38.376Z,95796.73
2019-01-15T00:04:09.537Z,95787.95
2019-01-15T00:06:40.355Z,95790.89
2019-01-15T00:09:11.631Z,95798.54
2019-01-15T00:11:42.894Z,95801.97
2019-01-15T00:14:14.746Z,95786.73
2019-01-15T00:16:45.751Z,95777.14
2019-01-15T00:19:16.575Z,95789.96
2019-01-15T00:21:47.738Z,95785.52
2019-01-15T00:24:20.514Z,95793.02
2019-01-15T00:26:51.872Z,95785.41
2019-01-15T00:29:22.938Z,95793.52
2019-01-15T00:31:53.857Z,95787.45
2019-01-15T00:34:25.397Z,95790.47
2019-01-15T00:36:58.378Z,95792.59
2019-01-15T00:39:29.203Z,95792.09
2019-01-15T00:42:01.104Z,95793.83
2019-01-15T00:44:32.621Z,95793.02
2019-01-15T00:47:06.600Z,95797.27
2019-01-15T00:49:43.285Z,95798.39
2019-01-15T00:52:14.330Z,95807.16
2019-01-15T00:54:45.138Z,95799.70
2019-01-15T00:57:17.240Z,95811.80
2019-01-15T00:59:48.069Z,95814.53
2019-01-15T01:02:18.875Z,95826.46
2019-01-15T01:04:50.066Z,95823.53
2019-01-15T01:07:20.906Z,95826.58
2019-01-15T01:09:51.781Z,95825.16
2019-01-15T01:12:22.639Z,95818.28
2019-01-15T01:14:53.426Z,95826.28
2019-01-15T01:17:24.306Z,95830.95
2019-01-15T01:19:55.429Z,95830.45
2019-01-15T01:22:26.696Z,95829.64
2019-01-15T01:24:57.884Z,95836.09
2019-01-15T01:27:29.101Z,95831.84
2019-01-15T01:30:00.916Z,95842.96
2019-01-15T01:32:32.060Z,95834.58
2019-01-15T01:35:02.886Z,95845.09
2019-01-15T01:37:34.132Z,95840.73
2019-01-15T01:40:06.119Z,95841.03
2019-01-15T01:42:36.906Z,95835.91
2019-01-15T01:45:13.376Z,95838.02
2019-01-15T01:47:49.935Z,95837.64
2019-01-15T01:50:20.734Z,95845.83
2019-01-15T01:52:55.251Z,95842.97
2019-01-15T01:55:28.123Z,95849.54
2019-01-15T01:58:01.858Z,95844.09
2019-01-15T02:00:34.682Z,95840.46
2019-01-15T02:03:06.987Z,95848.96
2019-01-15T02:05:38.155Z,95842.70
2019-01-15T02:08:08.978Z,95847.53
2019-01-15T02:10:40.779Z,95849.27
2019-01-15T02:13:13.756Z,95846.25
2019-01-15T02:15:44.521Z,95852.28
2019-01-15T02:18:16.854Z,95842.50
2019-01-15T02:20:47.901Z,95843.52
2019-01-15T02:23:19.437Z,95845.13
2019-01-15T02:25:51.621Z,95847.56
2019-01-15T02:28:25.449Z,95858.97
2019-01-15T02:30:56.216Z,95864.34
2019-01-15T02:33:27.745Z,95868.78
2019-01-15T02:36:02.544Z,95871.10
2019-01-15T02:38:33.340Z,95863.84
2019-01-15T02:41:04.476Z,95871.72
2019-01-15T02:43:35.295Z,95870.41
2019-01-15T02:46:06.986Z,95870.02
2019-01-15T02:48:37.771Z,95866.88
2019-01-15T02:51:09.519Z,95863.53
2019-01-15T02:53:40.305Z,95870.22
2019-01-15T02:56:11.152Z,95865.96
2019-01-15T02:58:41.911Z,95871.02
2019-01-15T03:01:12.710Z,95873.96
2019-01-15T03:03:43.813Z,95863.25
2019-01-15T03:06:15.676Z,95867.50
2019-01-15T03:08:46.420Z,95872.26
2019-01-15T03:11:17.231Z,95877.01
2019-01-15T03:13:48.281Z,95876.70
2019-01-15T03:16:19.132Z,95875.58
2019-01-15T03:18:49.924Z,95888.03
2019-01-15T03:21:20.745Z,95880.25
2019-01-15T03:23:53.970Z,95877.31
2019-01-15T03:26:24.817Z,95872.88
2019-01-15T03:28:55.664Z,95877.70
2019-01-15T03:31:26.503Z,95873.18
2019-01-15T03:33:57.340Z,95877.70
2019-01-15T03:36:30.609Z,95876.63
2019-01-15T03:39:01.682Z,95876.70
2019-01-15T03:41:34.060Z,95877.40
2019-01-15T03:44:04.769Z,95878.72
2019-01-15T03:46:35.653Z,95878.52
2019-01-15T03:49:06.757Z,95873.06
2019-01-15T03:51:38.726Z,95875.39
2019-01-15T03:54:13.822Z,95871.64
2019-01-15T03:56:44.624Z,95882.07
2019-01-15T03:59:16.734Z,95885.52
2019-01-15T04:01:48.529Z,95885.09
2019-01-15T04:04:20.088Z,95885.91
2019-01-15T04:06:51.023Z,95887.52
2019-01-15T04:09:22.815Z,95884.81
2019-01-15T04:11:53.638Z,95887.94
2019-01-15T04:14:24.506Z,95887.13
2019-01-15T04:16:55.371Z,95887.94
2019-01-15T04:19:26.521Z,95885.31
2019-01-15T04:21:57.631Z,95890.46
2019-01-15T04:24:28.401Z,95889.03
2019-01-15T04:26:59.479Z,95895.33
2019-01-15T04:29:30.329Z,95895.72
2019-01-15T04:32:01.488Z,95890.16
2019-01-15T04:34:32.229Z,95898.66
2019-01-15T04:37:03.048Z,95887.64
2019-01-15T04:39:33.887Z,95906.23
2019-01-15T04:42:07.623Z,95898.15
2019-01-15T04:44:38.492Z,95908.66
2019-01-15T04:47:09.571Z,95901.67
2019-01-15T04:49:40.379Z,95905.84
2019-01-15T04:52:13.947Z,95902.41
2019-01-15T04:54:45.069Z,95911.91
2019-01-15T04:57:18.539Z,95914.63
2019-01-15T04:59:49.863Z,95909.78
2019-01-15T05:02:20.936Z,95903.22
2019-01-15T05:04:51.715Z,95899.27
2019-01-15T05:07:22.609Z,95892.70
2019-01-15T05:09:53.480Z,95898.34
2019-01-15T05:12:24.340Z,95892.08
2019-01-15T05:14:55.163Z,95889.03
2019-01-15T05:17:25.988Z,95881.38
2019-01-15T05:20:07.465Z,95886.83
2019-01-15T05:22:38.465Z,95881.56
2019-01-15T05:25:12.068Z,95881.88
2019-01-15T05:27:43.258Z,95879.33
2019-01-15T05:30:24.935Z,95889.14
2019-01-15T05:32:55.769Z,95898.15
2019-01-15T05:35:26.906Z,95900.78
2019-01-15T05:38:00.476Z,95904.22
2019-01-15T05:40:31.302Z,95904.61
2019-01-15T05:43:08.102Z,95906.66
2019-01-15T05:45:40.995Z,95906.15
2019-01-15T05:48:27.907Z,95909.09
2019-01-15T05:51:26.028Z,95916.36
2019-01-15T05:54:04.989Z,95923.32
2019-01-15T05:56:35.836Z,95922.09
2019-01-15T05:59:07.652Z,95924.94
2019-01-15T06:01:39.835Z,95926.95
2019-01-15T06:04:10.613Z,95921.69
2019-01-15T06:06:41.422Z,95916.13
2019-01-15T06:09:14.089Z,95915.52
2019-01-15T06:11:45.033Z,95913.69
2019-01-15T06:14:18.047Z,95915.81
2019-01-15T06:16:50.559Z,95917.45
2019-01-15T06:19:21.365Z,95911.99
2019-01-15T06:21:57.199Z,95914.31
2019-01-15T06:24:39.182Z,95912.69
2019-01-15T06:27:12.246Z,95917.36
2019-01-15T06:29:43.362Z,95918.37
2019-01-15T06:32:16.336Z,95922.31
2019-01-15T06:34:54.921Z,95920.77
2019-01-15T06:37:29.155Z,95920.77
2019-01-15T06:40:00.017Z,95921.81
2019-01-15T06:42:30.853Z,95922.39
2019-01-15T06:45:02.157Z,95930.08
2019-01-15T06:47:40.665Z,95932.40
2019-01-15T06:50:09.218Z,95933.72
2019-01-15T06:52:40.372Z,95939.98
2019-01-15T06:55:12.853Z,95933.29
2019-01-15T06:57:44.721Z,95941.98
2019-01-15T07:00:19.049Z,95936.14
2019-01-15T07:02:49.935Z,95944.03
2019-01-15T07:05:21.411Z,95950.18
2019-01-15T07:07:52.515Z,95952.69
2019-01-15T07:10:27.454Z,95955.55
2019-01-15T07:12:58.605Z,95957.24
2019-01-15T07:15:33.130Z,95957.24
2019-01-15T07:18:05.449Z,95960.18
2019-01-15T07:20:36.753Z,95962.30
2019-01-15T07:23:09.712Z,95958.05
2019-01-15T07:25:40.554Z,95965.94
2019-01-15T07:28:11.385Z,95964.94
2019-01-15T07:31:06.044Z,95967.38
2019-01-15T07:33:40.513Z,95968.46
2019-01-15T07:36:16.620Z,95959.19
2019-01-15T07:38:47.423Z,95954.44
2019-01-15T07:41:18.464Z,95960.50
2019-01-15T07:43:49.688Z,95955.48
2019-01-15T07:46:23.399Z,95961.13
2019-01-15T07:48:54.420Z,95962.13
2019-01-15T07:51:25.473Z,95969.32
2019-01-15T07:53:56.293Z,95973.58
2019-01-15T07:56:28.807Z,95980.27
2019-01-15T07:58:59.639Z,95972.46
2019-01-15T08:01:30.467Z,95975.52
2019-01-15T08:04:01.588Z,95979.69
2019-01-15T08:06:32.402Z,95969.45
2019-01-15T08:09:05.109Z,95968.44
2019-01-15T08:11:38.359Z,95970.49
2019-01-15T08:14:12.087Z,95961.28
2019-01-15T08:16:42.348Z,95962.32
2019-01-15T08:19:13.143Z,95957.95
2019-01-15T08:21:44.383Z,95961.31
2019-01-15T08:24:17.195Z,95971.33
2019-01-15T08:26:49.539Z,95966.88
2019-01-15T08:29:23.314Z,95960.39
2019-01-15T08:31:54.572Z,95963.94
2019-01-15T08:34:25.287Z,95963.86
2019-01-15T08:36:59.782Z,95963.13
2019-01-15T08:39:30.535Z,95964.55
2019-01-15T08:42:01.737Z,95969.30
2019-01-15T08:44:34.543Z,95974.38
2019-01-15T08:47:07.282Z,95975.06
2019-01-15T08:49:39.759Z,95978.11
2019-01-15T08:52:10.595Z,95970.72
2019-01-15T08:54:41.507Z,95972.34
2019-01-15T08:57:12.504Z,95974.78
2019-01-15T08:59:49.406Z,95977.52
2019-01-15T09:02:21.495Z,95973.88
2019-01-15T09:04:52.302Z,95962.23
2019-01-15T09:07:23.213Z,95968.10
2019-01-15T09:09:54.025Z,95971.34
2019-01-15T09:12:26.225Z,95980.44
2019-01-15T09:15:01.730Z,95979.84
2019-01-15T09:17:41.535Z,95981.86
2019-01-15T09:20:18.128Z,95986.42
2019-01-15T09:22:51.213Z,95985.80
2019-01-15T09:25:21.944Z,95985.60
2019-01-15T09:27:55.360Z,95983.69
2019-01-15T09:30:28.941Z,95989.03
2019-01-15T09:32:59.739Z,95979.92
2019-01-15T09:35:31.222Z,95980.64
2019-01-15T09:38:03.481Z,95980.20
2019-01-15T09:40:35.373Z,95969.78
2019-01-15T09:43:07.232Z,95966.01
2019-01-15T09:45:40.193Z,95959.80
2019-01-15T09:48:17.741Z,95957.86
2019-01-15T09:50:49.866Z,95955.89
2019-01-15T09:53:24.249Z,95945.52
2019-01-15T09:55:59.794Z,95949.33
2019-01-15T09:58:32.938Z,95943.76
2019-01-15T10:01:03.960Z,95934.16
2019-01-15T10:03:34.758Z,95935.08
2019-01-15T10:06:09.087Z,95931.93
2019-01-15T10:08:41.326Z,95926.21
2019-01-15T10:11:14.188Z,95931.04
2019-01-15T10:13:50.810Z,95919.62
2019-01-15T10:16:21.614Z,95915.66
2019-01-15T10:18:54.505Z,95913.34
2019-01-15T10:21:28.219Z,95905.88
2019-01-15T10:24:02.745Z,95903.50
2019-01-15T10:26:33.989Z,95899.15
2019-01-15T10:29:05.074Z,95895.59
2019-01-15T10:32:39.577Z,95893.81
2019-01-15T10:35:32.888Z,95876.69
2019-01-15T10:38:05.090Z,95882.61
2019-01-15T10:40:39.319Z,95881.64
2019-01-15T10:43:13.396Z,95879.22
2019-01-15T10:45:44.656Z,95872.83
2019-01-15T10:48:23.432Z,95875.98
2019-01-15T10:50:56.980Z,95870.40
2019-01-15T10:53:29.364Z,95863.00
2019-01-15T10:56:00.509Z,95868.48
2019-01-15T10:58:31.429Z,95852.50
2019-01-15T11:01:03.578Z,95854.39
2019-01-15T11:03:38.664Z,95861.48
2019-01-15T11:06:15.443Z,95853.93
2019-01-15T11:08:46.366Z,95852.85
2019-01-15T11:11:18.098Z,95846.52
2019-01-15T11:13:48.964Z,95856.85
2019-01-15T11:16:21.080Z,95849.52
2019-01-15T11:18:52.090Z,95847.78
2019-01-15T11:21:22.765Z,95829.03
2019-01-15T11:23:53.484Z,95835.46
2019-01-15T11:26:28.244Z,95838.40
2019-01-15T11:29:04.521Z,95838.91
2019-01-15T11:31:35.463Z,95842.77
2019-01-15T11:34:06.685Z,95835.52
2019-01-15T11:36:37.649Z,95828.88
2019-01-15T11:39:20.883Z,95826.44
2019-01-15T11:41:57.674Z,95834.77
2019-01-15T11:44:29.433Z,95829.38
2019-01-15T11:47:00.202Z,95825.07
2019-01-15T11:49:31.253Z,95830.64
2019-01-15T11:52:01.985Z,95831.96
2019-01-15T11:54:36.944Z,95830.95
2019-01-15T11:57:13.746Z,95839.16
2019-01-15T11:59:44.505Z,95831.16
2019-01-15T12:02:24.128Z,95827.91
2019-01-15T12:05:19.117Z,95823.59
2019-01-15T12:08:08.868Z,95823.20
2019-01-15T12:11:07.352Z,95819.76
2019-01-15T12:14:00.404Z,95811.04
2019-01-15T12:16:53.021Z,95829.28
2019-01-15T12:19:55.752Z,95826.86
2019-01-15T12:22:46.078Z,95823.34
2019-01-15T12:25:42.458Z,95830.35
2019-01-15T12:28:43.397Z,95825.80
2019-01-15T12:31:42.603Z,95826.09
2019-01-15T12:34:33.856Z,95826.09
2019-01-15T12:37:39.384Z,95822.66
2019-01-15T12:40:32.232Z,95817.49
2019-01-15T12:43:26.963Z,95826.34
2019-01-15T12:46:22.404Z,95819.46
2019-01-15T12:49:24.728Z,95820.69
2019-01-15T12:52:17.140Z,95819.88
2019-01-15T12:55:08.321Z,95818.91
2019-01-15T12:58:01.841Z,95814.23
2019-01-15T13:01:03.535Z,95813.43
2019-01-15T13:03:59.307Z,95809.48
2019-01-15T13:06:52.096Z,95807.36
2019-01-15T13:09:40.992Z,95817.03
2019-01-15T13:12:37.055Z,95811.16
2019-01-15T13:15:34.809Z,95801.53
2019-01-15T13:18:30.774Z,95800.82
2019-01-15T13:21:18.524Z,95799.00
2019-01-15T13:23:59.419Z,95799.80
2019-01-15T13:26:47.668Z,95796.25
2019-01-15T13:29:37.638Z,95793.31
2019-01-15T13:32:25.097Z,95793.11
2019-01-15T13:35:33.494Z,95787.03
2019-01-15T13:38:35.478Z,95793.89
2019-01-15T13:41:44.104Z,95793.11
2019-01-15T13:44:32.320Z,95795.30
2019-01-15T13:47:28.543Z,95790.42
2019-01-15T13:50:17.010Z,95799.00
2019-01-15T13:53:07.026Z,95797.17
2019-01-15T13:56:05.991Z,95797.38
2019-01-15T13:59:00.471Z,95806.09
2019-01-15T14:01:57.709Z,95803.70
2019-01-15T14:04:38.504Z,95800.77
2019-01-15T14:07:36.353Z,95790.94
2019-01-15T14:10:23.570Z,95795.81
2019-01-15T14:18:06.418Z,95795.60
2019-01-15T14:21:15.056Z,95795.00
2019-01-15T14:24:11.584Z,95787.30
2019-01-15T14:27:13.170Z,95783.08
2019-01-15T14:30:01.439Z,95782.03
2019-01-15T14:33:04.125Z,95777.30
2019-01-15T14:36:00.166Z,95778.31
2019-01-15T14:38:55.773Z,95779.33
2019-01-15T14:41:46.963Z,95773.77
2019-01-15T14:44:40.823Z,95770.52
2019-01-15T14:47:30.853Z,95771.33
2019-01-15T14:50:38.809Z,95766.78
2019-01-15T14:53:42.339Z,95764.35
2019-01-15T14:56:32.767Z,95765.09
2019-01-15T14:59:23.842Z,95767.43
2019-01-15T15:02:25.205Z,95760.95
2019-01-15T15:05:13.803Z,95765.63
2019-01-15T15:08:03.180Z,95755.73
2019-01-15T15:11:06.956Z,95754.32
2019-01-15T15:14:02.475Z,95755.64
2019-01-15T15:16:46.445Z,95758.48
2019-01-15T15:19:41.073Z,95749.77
2019-01-15T15:22:39.257Z,95746.42
2019-01-15T15:25:42.990Z,95744.39
2019-01-15T15:28:35.440Z,95740.64
2019-01-15T15:31:33.741Z,95739.93
2019-01-15T15:34:23.674Z,95737.30
2019-01-15T15:37:17.861Z,95735.98
2019-01-15T15:40:21.397Z,95735.27
2019-01-15T15:43:27.330Z,95742.36
2019-01-15T15:46:17.646Z,95761.09
2019-01-15T15:49:09.230Z,95747.19
2019-01-15T15:52:03.209Z,95736.95
2019-01-15T15:55:04.017Z,95737.25
2019-01-15T15:58:02.116Z,95750.72
2019-01-15T16:00:50.590Z,95752.44
2019-01-15T16:03:42.704Z,95748.64
2019-01-15T16:06:36.379Z,95749.95
2019-01-15T16:09:22.680Z,95754.21
2019-01-15T16:12:12.382Z,95753.35
2019-01-15T16:14:59.336Z,95756.28
2019-01-15T16:17:48.486Z,95761.05
2019-01-15T16:20:36.640Z,95757.48
2019-01-15T16:23:37.199Z,95758.39
2019-01-15T16:26:35.349Z,95742.34
2019-01-15T16:29:38.459Z,95745.78
2019-01-15T16:32:50.820Z,95751.95
2019-01-15T16:35:39.206Z,95744.56
2019-01-15T16:38:32.217Z,95742.22
2019-01-15T16:41:30.462Z,95740.70
2019-01-15T16:44:40.308Z,95733.16
2019-01-15T16:47:35.761Z,95735.28
2019-01-15T16:50:30.318Z,95732.31
2019-01-15T16:53:24.386Z,95727.55
2019-01-15T16:56:24.745Z,95737.44
2019-01-15T16:59:20.666Z,95741.55
2019-01-15T17:02:16.453Z,95740.02
2019-01-15T17:05:28.937Z,95749.91
2019-01-15T17:08:17.168Z,95752.17
2019-01-15T17:11:14.585Z,95747.69
2019-01-15T17:14:08.626Z,95749.60
2019-01-15T17:17:11.901Z,95740.52
2019-01-15T17:19:57.758Z,95743.52
2019-01-15T17:23:12.848Z,95747.35
2019-01-15T17:26:09.314Z,95741.06
2019-01-15T17:28:58.772Z,95738.55
2019-01-15T17:31:47.573Z,95746.55
2019-01-15T17:34:41.360Z,95743.49
2019-01-15T17:37:48.119Z,95745.89
2019-01-15T17:40:36.232Z,95747.80
2019-01-15T17:43:27.826Z,95747.69
2019-01-15T17:46:20.242Z,95746.66
2019-01-15T17:49:14.416Z,95752.95
2019-01-15T17:52:16.016Z,95749.93
2019-01-15T17:55:26.442Z,95751.76
2019-01-15T17:58:10.929Z,95743.94
2019-01-15T18:01:07.713Z,95744.62
2019-01-15T18:04:21.428Z,95737.49
2019-01-15T18:07:12.533Z,95746.72
2019-01-15T18:09:59.579Z,95749.75
2019-01-15T18:12:48.229Z,95749.36
2019-01-15T18:15:37.806Z,95750.25
2019-01-15T18:18:43.115Z,95747.41
2019-01-15T18:21:52.022Z,95745.16
2019-01-15T18:24:58.489Z,95755.41
2019-01-15T18:27:47.758Z,95755.83
2019-01-15T18:30:34.130Z,95741.63
2019-01-15T18:33:25.234Z,95745.28
2019-01-15T18:36:20.944Z,95741.53
2019-01-15T18:39:10.330Z,95728.35
2019-01-15T18:41:51.064Z,95737.25
2019-01-15T18:44:40.767Z,95738.63
2019-01-15T18:47:32.041Z,95740.09
2019-01-15T18:50:22.761Z,95734.91
2019-01-15T18:53:30.096Z,95741.14
2019-01-15T18:56:23.363Z,95736.38
2019-01-15T18:59:14.911Z,95739.30
2019-01-15T19:02:05.164Z,95735.65
2019-01-15T19:04:55.372Z,95738.28
2019-01-15T19:08:00.358Z,95733.16
2019-01-15T19:10:52.876Z,95736.97
2019-01-15T19:13:34.741Z,95736.52
2019-01-15T19:16:36.228Z,95723.07
2019-01-15T19:19:24.700Z,95734.34
2019-01-15T19:22:26.735Z,95738.39
2019-01-15T19:25:51.843Z,95734.48
2019-01-15T19:28:36.109Z,95746.52
2019-01-15T19:31:28.726Z,95741.30
2019-01-15T19:34:22.443Z,95741.66
2019-01-15T19:37:18.512Z,95737.92
2019-01-15T19:40:01.969Z,95738.00
2019-01-15T19:42:45.278Z,95736.47
2019-01-15T19:45:43.878Z,95737.80
2019-01-15T19:48:29.345Z,95736.39
2019-01-15T19:51:17.292Z,95738.13
2019-01-15T19:54:16.676Z,95742.89
2019-01-15T19:57:04.195Z,95730.30
2019-01-15T20:00:13.037Z,95735.58
2019-01-15T20:03:10.098Z,95741.06
2019-01-15T20:05:59.091Z,95731.11
2019-01-15T20:08:56.070Z,95726.34
2019-01-15T20:11:54.127Z,95742.47
2019-01-15T20:14:44.230Z,95736.98
2019-01-15T20:17:34.293Z,95743.94
2019-01-15T20:20:31.586Z,95741.47
2019-01-15T20:23:21.351Z,95740.87
2019-01-15T20:26:13.806Z,95731.80
2019-01-15T20:29:02.170Z,95736.02
2019-01-15T20:32:03.252Z,95736.17
2019-01-15T20:35:10.720Z,95742.27
2019-01-15T20:38:24.403Z,95744.69
2019-01-15T20:41:22.942Z,95751.49
2019-01-15T20:44:15.298Z,95754.22
2019-01-15T20:47:26.258Z,95748.55
2019-01-15T20:50:34.125Z,95755.96
2019-01-15T20:53:30.903Z,95757.36
2019-01-15T20:56:36.574Z,95757.88
2019-01-15T20:59:25.004Z,95758.39
2019-01-15T21:02:14.875Z,95758.09
2019-01-15T21:05:05.974Z,95756.86
2019-01-15T21:08:03.439Z,95758.73
2019-01-15T21:10:53.082Z,95754.73
2019-01-15T21:13:41.333Z,95754.22
2019-01-15T21:16:31.539Z,95755.75
2019-01-15T21:19:39.518Z,95752.52
2019-01-15T21:22:31.855Z,95751.41
2019-01-15T21:25:39.379Z,95753.39
2019-01-15T21:28:37.163Z,95748.96
2019-01-15T21:31:29.591Z,95747.85
2019-01-15T21:34:25.209Z,95755.32
2019-01-15T21:37:17.778Z,95757.23
2019-01-15T21:40:26.876Z,95753.28
2019-01-15T21:43:20.547Z,95756.34
2019-01-15T21:46:18.530Z,95755.62
2019-01-15T21:49:20.317Z,95756.64
2019-01-15T21:52:23.065Z,95764.76
2019-01-15T21:55:13.011Z,95764.41
2019-01-15T21:58:18.226Z,95758.38
2019-01-15T22:01:11.659Z,95758.32
2019-01-15T22:04:10.030Z,95753.05
2019-01-15T22:07:02.738Z,95748.28
2019-01-15T22:10:01.954Z,95751.94
2019-01-15T22:12:54.603Z,95748.19
2019-01-15T22:15:56.541Z,95749.51
2019-01-15T22:18:46.856Z,95747.53
2019-01-15T22:21:43.397Z,95741.98
2019-01-15T22:24:42.681Z,95750.05
2019-01-15T22:27:31.001Z,95751.48
2019-01-15T22:30:20.672Z,95754.42
2019-01-15T22:33:15.639Z,95748.28
2019-01-15T22:36:15.083Z,95751.34
2019-01-15T22:39:08.328Z,95742.63
2019-01-15T22:42:04.241Z,95744.15
2019-01-15T22:45:10.438Z,95740.19
2019-01-15T22:48:11.933Z,95742.47
2019-01-15T22:51:19.404Z,95748.10
2019-01-15T22:54:26.920Z,95747.89
2019-01-15T22:57:18.325Z,95744.75
2019-01-15T23:00:16.531Z,95743.73
2019-01-15T23:03:10.689Z,95754.19
2019-01-15T23:05:59.023Z,95748.52
2019-01-15T23:08:49.078Z,95745.23
2019-01-15T23:11:37.371Z,95746.25
2019-01-15T23:14:31.732Z,95740.97
2019-01-15T23:17:25.435Z,95746.03
2019-01-15T23:20:22.110Z,95743.04
2019-01-15T23:23:14.981Z,95736.75
2019-01-15T23:26:08.217Z,95738.88
2019-01-15T23:29:01.552Z,95730.45
2019-01-15T23:31:51.601Z,95728.00
2019-01-15T23:34:39.563Z,95720.44
2019-01-15T23:37:25.712Z,95721.84
2019-01-15T23:40:15.438Z,95724.78
2019-01-15T23:43:05.634Z,95727.42
2019-01-15T23:45:53.685Z,95729.97
2019-01-15T23:48:46.109Z,95727.84
2019-01-15T23:51:41.401Z,95722.06
2019-01-15T23:54:49.438Z,95726.02
2019-01-15T23:57:50.711Z,95727.33
